sensor_id;sensor_type;location;lat;lon;timestamp;temperature;humidity
20349;DHT22;10332;50.208;18.988;2023-08-01T00:00:03;19.40;67.50
20349;DHT22;10332;50.208;18.988;2023-08-01T00:02:33;19.30;66.40
20349;DHT22;10332;50.208;18.988;2023-08-01T00:05:01;19.30;66.80
20349;DHT22;10332;50.208;18.988;2023-08-01T00:07:28;19.30;66.80
20349;DHT22;10332;50.208;18.988;2023-08-01T00:09:56;19.30;67.20
20349;DHT22;10332;50.208;18.988;2023-08-01T00:12:24;19.30;67.70
20349;DHT22;10332;50.208;18.988;2023-08-01T00:14:52;19.20;68.30
20349;DHT22;10332;50.208;18.988;2023-08-01T00:17:19;19.20;68.00
20349;DHT22;10332;50.208;18.988;2023-08-01T00:19:48;19.20;68.60
20349;DHT22;10332;50.208;18.988;2023-08-01T00:22:15;19.20;68.30
20349;DHT22;10332;50.208;18.988;2023-08-01T00:24:43;19.20;70.00
20349;DHT22;10332;50.208;18.988;2023-08-01T00:27:10;19.10;70.00
20349;DHT22;10332;50.208;18.988;2023-08-01T00:29:38;19.10;70.40
20349;DHT22;10332;50.208;18.988;2023-08-01T00:32:06;19.10;71.30
20349;DHT22;10332;50.208;18.988;2023-08-01T00:34:33;19.10;72.20
20349;DHT22;10332;50.208;18.988;2023-08-01T00:37:01;19.10;72.50
20349;DHT22;10332;50.208;18.988;2023-08-01T00:39:28;19.00;72.50
20349;DHT22;10332;50.208;18.988;2023-08-01T00:41:56;19.00;72.60
20349;DHT22;10332;50.208;18.988;2023-08-01T00:44:24;19.00;73.10
20349;DHT22;10332;50.208;18.988;2023-08-01T00:46:51;19.00;73.70
20349;DHT22;10332;50.208;18.988;2023-08-01T00:49:19;19.00;73.40
20349;DHT22;10332;50.208;18.988;2023-08-01T00:51:47;18.90;73.80
20349;DHT22;10332;50.208;18.988;2023-08-01T00:54:17;18.90;73.90
20349;DHT22;10332;50.208;18.988;2023-08-01T00:56:45;18.90;73.60
20349;DHT22;10332;50.208;18.988;2023-08-01T00:59:13;18.90;74.30
20349;DHT22;10332;50.208;18.988;2023-08-01T01:01:40;18.90;73.00
20349;DHT22;10332;50.208;18.988;2023-08-01T01:04:08;18.90;73.20
20349;DHT22;10332;50.208;18.988;2023-08-01T01:09:15;18.90;73.60
20349;DHT22;10332;50.208;18.988;2023-08-01T01:11:44;18.80;73.30
20349;DHT22;10332;50.208;18.988;2023-08-01T01:14:13;18.80;73.20
20349;DHT22;10332;50.208;18.988;2023-08-01T01:16:41;18.80;72.80
20349;DHT22;10332;50.208;18.988;2023-08-01T01:19:09;18.80;71.90
20349;DHT22;10332;50.208;18.988;2023-08-01T01:21:40;18.80;71.90
20349;DHT22;10332;50.208;18.988;2023-08-01T01:24:10;18.80;71.40
20349;DHT22;10332;50.208;18.988;2023-08-01T01:26:41;18.80;71.00
20349;DHT22;10332;50.208;18.988;2023-08-01T01:29:11;18.90;70.60
20349;DHT22;10332;50.208;18.988;2023-08-01T01:31:39;18.90;70.20
20349;DHT22;10332;50.208;18.988;2023-08-01T01:34:08;18.90;69.60
20349;DHT22;10332;50.208;18.988;2023-08-01T01:36:37;18.90;68.80
20349;DHT22;10332;50.208;18.988;2023-08-01T01:39:05;18.90;68.70
20349;DHT22;10332;50.208;18.988;2023-08-01T01:41:32;18.90;67.90
20349;DHT22;10332;50.208;18.988;2023-08-01T01:44:00;18.90;67.50
20349;DHT22;10332;50.208;18.988;2023-08-01T01:46:28;18.90;67.20
20349;DHT22;10332;50.208;18.988;2023-08-01T01:48:55;18.90;67.00
20349;DHT22;10332;50.208;18.988;2023-08-01T01:51:26;18.80;67.60
20349;DHT22;10332;50.208;18.988;2023-08-01T01:53:54;18.80;66.80
20349;DHT22;10332;50.208;18.988;2023-08-01T01:56:21;18.80;66.90
20349;DHT22;10332;50.208;18.988;2023-08-01T01:58:49;18.80;66.80
20349;DHT22;10332;50.208;18.988;2023-08-01T02:01:17;18.80;66.80
20349;DHT22;10332;50.208;18.988;2023-08-01T02:03:44;18.80;67.00
20349;DHT22;10332;50.208;18.988;2023-08-01T02:06:12;18.70;66.90
20349;DHT22;10332;50.208;18.988;2023-08-01T02:08:39;18.70;67.30
20349;DHT22;10332;50.208;18.988;2023-08-01T02:11:07;18.70;66.90
20349;DHT22;10332;50.208;18.988;2023-08-01T02:13:34;18.70;67.20
20349;DHT22;10332;50.208;18.988;2023-08-01T02:16:02;18.70;66.90
20349;DHT22;10332;50.208;18.988;2023-08-01T02:18:29;18.70;67.10
20349;DHT22;10332;50.208;18.988;2023-08-01T02:20:57;18.70;66.10
20349;DHT22;10332;50.208;18.988;2023-08-01T02:23:24;18.70;66.40
20349;DHT22;10332;50.208;18.988;2023-08-01T02:25:52;18.70;66.70
20349;DHT22;10332;50.208;18.988;2023-08-01T02:28:19;18.60;66.50
20349;DHT22;10332;50.208;18.988;2023-08-01T02:30:47;18.60;66.10
20349;DHT22;10332;50.208;18.988;2023-08-01T02:33:16;18.60;66.50
20349;DHT22;10332;50.208;18.988;2023-08-01T02:35:46;18.60;66.90
20349;DHT22;10332;50.208;18.988;2023-08-01T02:38:14;18.60;66.50
20349;DHT22;10332;50.208;18.988;2023-08-01T02:40:42;18.50;66.80
20349;DHT22;10332;50.208;18.988;2023-08-01T02:43:09;18.50;66.80
20349;DHT22;10332;50.208;18.988;2023-08-01T02:45:37;18.50;67.30
20349;DHT22;10332;50.208;18.988;2023-08-01T02:48:04;18.50;67.00
20349;DHT22;10332;50.208;18.988;2023-08-01T02:50:32;18.50;67.20
20349;DHT22;10332;50.208;18.988;2023-08-01T02:53:00;18.50;67.00
20349;DHT22;10332;50.208;18.988;2023-08-01T02:55:27;18.60;66.60
20349;DHT22;10332;50.208;18.988;2023-08-01T02:57:55;18.50;67.20
20349;DHT22;10332;50.208;18.988;2023-08-01T03:00:22;18.50;67.00
20349;DHT22;10332;50.208;18.988;2023-08-01T03:02:50;18.50;67.30
20349;DHT22;10332;50.208;18.988;2023-08-01T03:05:18;18.50;66.90
20349;DHT22;10332;50.208;18.988;2023-08-01T03:07:46;18.50;67.20
20349;DHT22;10332;50.208;18.988;2023-08-01T03:10:13;18.50;67.70
20349;DHT22;10332;50.208;18.988;2023-08-01T03:13:00;18.50;68.00
20349;DHT22;10332;50.208;18.988;2023-08-01T03:15:28;18.50;67.80
20349;DHT22;10332;50.208;18.988;2023-08-01T03:17:55;18.50;67.20
20349;DHT22;10332;50.208;18.988;2023-08-01T03:20:23;18.50;67.00
20349;DHT22;10332;50.208;18.988;2023-08-01T03:22:51;18.60;67.30
20349;DHT22;10332;50.208;18.988;2023-08-01T03:25:18;18.50;66.80
20349;DHT22;10332;50.208;18.988;2023-08-01T03:27:46;18.50;66.90
20349;DHT22;10332;50.208;18.988;2023-08-01T03:30:13;18.50;66.10
20349;DHT22;10332;50.208;18.988;2023-08-01T03:32:41;18.50;65.80
20349;DHT22;10332;50.208;18.988;2023-08-01T03:35:09;18.60;64.80
20349;DHT22;10332;50.208;18.988;2023-08-01T03:37:36;18.60;64.70
20349;DHT22;10332;50.208;18.988;2023-08-01T03:40:04;18.70;63.80
20349;DHT22;10332;50.208;18.988;2023-08-01T03:42:32;18.70;61.50
20349;DHT22;10332;50.208;18.988;2023-08-01T03:45:00;18.60;62.20
20349;DHT22;10332;50.208;18.988;2023-08-01T03:47:27;18.70;62.10
20349;DHT22;10332;50.208;18.988;2023-08-01T03:49:55;18.70;61.50
20349;DHT22;10332;50.208;18.988;2023-08-01T03:52:22;18.80;61.30
20349;DHT22;10332;50.208;18.988;2023-08-01T03:54:54;18.80;60.90
20349;DHT22;10332;50.208;18.988;2023-08-01T03:57:22;18.80;61.00
20349;DHT22;10332;50.208;18.988;2023-08-01T03:59:50;18.80;61.10
20349;DHT22;10332;50.208;18.988;2023-08-01T04:02:17;18.90;61.40
20349;DHT22;10332;50.208;18.988;2023-08-01T04:04:46;18.80;61.30
20349;DHT22;10332;50.208;18.988;2023-08-01T04:07:13;18.90;61.60
20349;DHT22;10332;50.208;18.988;2023-08-01T04:09:41;18.90;61.50
20349;DHT22;10332;50.208;18.988;2023-08-01T04:12:08;18.90;61.60
20349;DHT22;10332;50.208;18.988;2023-08-01T04:14:36;18.90;62.30
20349;DHT22;10332;50.208;18.988;2023-08-01T04:17:03;18.90;62.50
20349;DHT22;10332;50.208;18.988;2023-08-01T04:19:31;18.90;63.10
20349;DHT22;10332;50.208;18.988;2023-08-01T04:21:58;18.90;62.90
20349;DHT22;10332;50.208;18.988;2023-08-01T04:24:26;18.90;63.50
20349;DHT22;10332;50.208;18.988;2023-08-01T04:26:54;18.90;63.40
20349;DHT22;10332;50.208;18.988;2023-08-01T04:29:22;19.00;64.00
20349;DHT22;10332;50.208;18.988;2023-08-01T04:31:49;19.00;64.10
20349;DHT22;10332;50.208;18.988;2023-08-01T04:34:17;19.00;64.20
20349;DHT22;10332;50.208;18.988;2023-08-01T04:36:45;19.10;64.10
20349;DHT22;10332;50.208;18.988;2023-08-01T04:39:12;19.20;64.00
20349;DHT22;10332;50.208;18.988;2023-08-01T04:41:40;19.20;63.50
20349;DHT22;10332;50.208;18.988;2023-08-01T04:44:07;19.20;63.50
20349;DHT22;10332;50.208;18.988;2023-08-01T04:46:35;19.20;64.70
20349;DHT22;10332;50.208;18.988;2023-08-01T04:49:02;19.20;63.90
20349;DHT22;10332;50.208;18.988;2023-08-01T04:51:30;19.20;64.00
20349;DHT22;10332;50.208;18.988;2023-08-01T04:53:57;19.30;65.20
20349;DHT22;10332;50.208;18.988;2023-08-01T04:56:25;19.30;64.40
20349;DHT22;10332;50.208;18.988;2023-08-01T04:58:52;19.40;63.60
20349;DHT22;10332;50.208;18.988;2023-08-01T05:01:20;19.40;63.70
20349;DHT22;10332;50.208;18.988;2023-08-01T05:03:48;19.40;64.50
20349;DHT22;10332;50.208;18.988;2023-08-01T05:06:15;19.40;65.20
20349;DHT22;10332;50.208;18.988;2023-08-01T05:08:43;19.40;65.00
20349;DHT22;10332;50.208;18.988;2023-08-01T05:11:11;19.40;65.60
20349;DHT22;10332;50.208;18.988;2023-08-01T05:13:38;19.40;65.20
20349;DHT22;10332;50.208;18.988;2023-08-01T05:16:06;19.40;66.40
20349;DHT22;10332;50.208;18.988;2023-08-01T05:18:33;19.30;67.40
20349;DHT22;10332;50.208;18.988;2023-08-01T05:21:01;19.40;66.80
20349;DHT22;10332;50.208;18.988;2023-08-01T05:23:29;19.40;67.30
20349;DHT22;10332;50.208;18.988;2023-08-01T05:25:56;19.40;68.00
20349;DHT22;10332;50.208;18.988;2023-08-01T05:28:24;19.30;69.60
20349;DHT22;10332;50.208;18.988;2023-08-01T05:30:51;19.30;68.70
20349;DHT22;10332;50.208;18.988;2023-08-01T05:33:19;19.40;69.60
20349;DHT22;10332;50.208;18.988;2023-08-01T05:35:47;19.50;69.00
20349;DHT22;10332;50.208;18.988;2023-08-01T05:38:15;19.50;68.80
20349;DHT22;10332;50.208;18.988;2023-08-01T05:40:43;19.60;70.30
20349;DHT22;10332;50.208;18.988;2023-08-01T05:43:10;19.60;70.50
20349;DHT22;10332;50.208;18.988;2023-08-01T05:45:38;19.60;71.20
20349;DHT22;10332;50.208;18.988;2023-08-01T05:48:06;19.70;71.50
20349;DHT22;10332;50.208;18.988;2023-08-01T05:50:33;19.70;71.40
20349;DHT22;10332;50.208;18.988;2023-08-01T05:53:01;19.80;72.20
20349;DHT22;10332;50.208;18.988;2023-08-01T05:55:28;19.80;73.80
20349;DHT22;10332;50.208;18.988;2023-08-01T05:57:56;19.80;73.50
20349;DHT22;10332;50.208;18.988;2023-08-01T06:00:23;19.90;75.20
20349;DHT22;10332;50.208;18.988;2023-08-01T06:02:51;19.90;75.90
20349;DHT22;10332;50.208;18.988;2023-08-01T06:05:19;19.90;75.40
20349;DHT22;10332;50.208;18.988;2023-08-01T06:07:47;19.80;77.00
20349;DHT22;10332;50.208;18.988;2023-08-01T06:10:14;19.80;77.80
20349;DHT22;10332;50.208;18.988;2023-08-01T06:12:42;19.80;78.40
20349;DHT22;10332;50.208;18.988;2023-08-01T06:15:10;19.80;79.30
20349;DHT22;10332;50.208;18.988;2023-08-01T06:17:38;19.90;82.60
20349;DHT22;10332;50.208;18.988;2023-08-01T06:20:05;19.90;82.10
20349;DHT22;10332;50.208;18.988;2023-08-01T06:22:33;19.90;83.00
20349;DHT22;10332;50.208;18.988;2023-08-01T06:25:01;19.90;82.10
20349;DHT22;10332;50.208;18.988;2023-08-01T06:27:29;19.90;85.20
20349;DHT22;10332;50.208;18.988;2023-08-01T06:29:58;19.90;85.70
20349;DHT22;10332;50.208;18.988;2023-08-01T06:32:25;19.90;85.70
20349;DHT22;10332;50.208;18.988;2023-08-01T06:34:53;20.00;86.70
20349;DHT22;10332;50.208;18.988;2023-08-01T06:37:20;20.20;85.20
20349;DHT22;10332;50.208;18.988;2023-08-01T06:39:48;20.30;84.80
20349;DHT22;10332;50.208;18.988;2023-08-01T06:42:15;20.40;83.70
20349;DHT22;10332;50.208;18.988;2023-08-01T06:44:43;20.50;84.20
20349;DHT22;10332;50.208;18.988;2023-08-01T06:47:12;20.60;83.30
20349;DHT22;10332;50.208;18.988;2023-08-01T06:49:40;20.90;79.90
20349;DHT22;10332;50.208;18.988;2023-08-01T06:52:07;21.00;78.60
20349;DHT22;10332;50.208;18.988;2023-08-01T06:54:35;21.00;76.50
20349;DHT22;10332;50.208;18.988;2023-08-01T06:57:06;21.10;75.90
20349;DHT22;10332;50.208;18.988;2023-08-01T06:59:34;21.10;75.60
20349;DHT22;10332;50.208;18.988;2023-08-01T07:02:02;21.10;74.80
20349;DHT22;10332;50.208;18.988;2023-08-01T07:04:29;21.10;74.70
20349;DHT22;10332;50.208;18.988;2023-08-01T07:06:57;21.10;75.70
20349;DHT22;10332;50.208;18.988;2023-08-01T07:09:26;21.00;75.60
20349;DHT22;10332;50.208;18.988;2023-08-01T07:11:54;21.10;75.40
20349;DHT22;10332;50.208;18.988;2023-08-01T07:14:22;21.20;73.60
20349;DHT22;10332;50.208;18.988;2023-08-01T07:16:50;21.40;72.60
20349;DHT22;10332;50.208;18.988;2023-08-01T07:19:17;21.70;70.80
20349;DHT22;10332;50.208;18.988;2023-08-01T07:21:45;22.00;66.60
20349;DHT22;10332;50.208;18.988;2023-08-01T07:24:15;22.30;60.80
20349;DHT22;10332;50.208;18.988;2023-08-01T07:26:42;22.30;60.70
20349;DHT22;10332;50.208;18.988;2023-08-01T07:29:10;22.40;59.20
20349;DHT22;10332;50.208;18.988;2023-08-01T07:31:38;22.50;58.80
20349;DHT22;10332;50.208;18.988;2023-08-01T07:34:06;22.70;57.20
20349;DHT22;10332;50.208;18.988;2023-08-01T07:36:33;22.80;56.80
20349;DHT22;10332;50.208;18.988;2023-08-01T07:39:01;22.80;56.10
20349;DHT22;10332;50.208;18.988;2023-08-01T07:41:28;22.80;55.70
20349;DHT22;10332;50.208;18.988;2023-08-01T07:43:57;22.80;54.10
20349;DHT22;10332;50.208;18.988;2023-08-01T07:46:24;22.90;53.90
20349;DHT22;10332;50.208;18.988;2023-08-01T07:48:52;22.80;54.80
20349;DHT22;10332;50.208;18.988;2023-08-01T07:51:21;22.70;56.80
20349;DHT22;10332;50.208;18.988;2023-08-01T07:53:51;22.60;59.20
20349;DHT22;10332;50.208;18.988;2023-08-01T07:56:21;22.50;60.90
20349;DHT22;10332;50.208;18.988;2023-08-01T07:58:48;22.40;63.00
20349;DHT22;10332;50.208;18.988;2023-08-01T08:01:16;22.40;65.70
20349;DHT22;10332;50.208;18.988;2023-08-01T08:03:44;22.30;66.70
20349;DHT22;10332;50.208;18.988;2023-08-01T08:06:11;22.30;71.50
20349;DHT22;10332;50.208;18.988;2023-08-01T08:08:39;22.30;71.90
20349;DHT22;10332;50.208;18.988;2023-08-01T08:11:07;22.20;73.10
20349;DHT22;10332;50.208;18.988;2023-08-01T08:13:34;22.20;73.90
20349;DHT22;10332;50.208;18.988;2023-08-01T08:16:02;22.20;74.60
20349;DHT22;10332;50.208;18.988;2023-08-01T08:18:32;22.30;75.10
20349;DHT22;10332;50.208;18.988;2023-08-01T08:20:59;22.30;74.00
20349;DHT22;10332;50.208;18.988;2023-08-01T08:23:27;22.50;72.80
20349;DHT22;10332;50.208;18.988;2023-08-01T08:25:54;22.50;72.20
20349;DHT22;10332;50.208;18.988;2023-08-01T08:28:34;22.50;73.70
20349;DHT22;10332;50.208;18.988;2023-08-01T08:31:02;22.50;73.10
20349;DHT22;10332;50.208;18.988;2023-08-01T08:33:31;22.60;72.10
20349;DHT22;10332;50.208;18.988;2023-08-01T08:35:58;22.60;71.00
20349;DHT22;10332;50.208;18.988;2023-08-01T08:38:26;22.60;68.60
20349;DHT22;10332;50.208;18.988;2023-08-01T08:43:41;22.60;70.60
20349;DHT22;10332;50.208;18.988;2023-08-01T08:46:09;22.60;71.80
20349;DHT22;10332;50.208;18.988;2023-08-01T08:48:39;22.60;73.00
20349;DHT22;10332;50.208;18.988;2023-08-01T08:51:09;22.60;73.70
20349;DHT22;10332;50.208;18.988;2023-08-01T08:53:38;22.70;73.00
20349;DHT22;10332;50.208;18.988;2023-08-01T08:56:08;22.80;72.70
20349;DHT22;10332;50.208;18.988;2023-08-01T08:58:37;23.00;70.70
20349;DHT22;10332;50.208;18.988;2023-08-01T09:01:06;23.20;69.50
20349;DHT22;10332;50.208;18.988;2023-08-01T09:03:37;23.50;65.00
20349;DHT22;10332;50.208;18.988;2023-08-01T09:06:14;23.60;64.20
20349;DHT22;10332;50.208;18.988;2023-08-01T09:08:51;23.60;62.20
20349;DHT22;10332;50.208;18.988;2023-08-01T09:11:48;23.60;61.80
20349;DHT22;10332;50.208;18.988;2023-08-01T09:14:18;23.50;61.30
20349;DHT22;10332;50.208;18.988;2023-08-01T09:16:46;23.30;62.70
20349;DHT22;10332;50.208;18.988;2023-08-01T09:19:19;23.30;60.90
20349;DHT22;10332;50.208;18.988;2023-08-01T09:21:49;23.20;64.20
20349;DHT22;10332;50.208;18.988;2023-08-01T09:24:19;23.20;65.00
20349;DHT22;10332;50.208;18.988;2023-08-01T09:26:49;23.20;65.10
20349;DHT22;10332;50.208;18.988;2023-08-01T09:29:17;23.20;65.50
20349;DHT22;10332;50.208;18.988;2023-08-01T09:31:46;23.20;65.90
20349;DHT22;10332;50.208;18.988;2023-08-01T09:34:26;23.30;67.10
20349;DHT22;10332;50.208;18.988;2023-08-01T09:36:59;23.50;66.10
20349;DHT22;10332;50.208;18.988;2023-08-01T09:39:27;24.00;60.30
20349;DHT22;10332;50.208;18.988;2023-08-01T09:41:59;24.20;55.90
20349;DHT22;10332;50.208;18.988;2023-08-01T09:44:29;24.20;52.10
20349;DHT22;10332;50.208;18.988;2023-08-01T09:47:03;24.00;53.90
20349;DHT22;10332;50.208;18.988;2023-08-01T09:49:33;23.90;54.70
20349;DHT22;10332;50.208;18.988;2023-08-01T09:52:03;23.80;54.50
20349;DHT22;10332;50.208;18.988;2023-08-01T09:54:31;23.60;56.90
20349;DHT22;10332;50.208;18.988;2023-08-01T09:57:00;23.60;57.60
20349;DHT22;10332;50.208;18.988;2023-08-01T09:59:31;23.50;58.50
20349;DHT22;10332;50.208;18.988;2023-08-01T10:02:01;23.40;59.30
20349;DHT22;10332;50.208;18.988;2023-08-01T10:04:30;23.30;60.70
20349;DHT22;10332;50.208;18.988;2023-08-01T10:07:10;23.30;62.10
20349;DHT22;10332;50.208;18.988;2023-08-01T10:09:40;23.20;59.70
20349;DHT22;10332;50.208;18.988;2023-08-01T10:12:09;23.20;58.70
20349;DHT22;10332;50.208;18.988;2023-08-01T10:14:40;23.30;60.30
20349;DHT22;10332;50.208;18.988;2023-08-01T10:17:11;23.30;54.00
20349;DHT22;10332;50.208;18.988;2023-08-01T10:19:42;23.30;55.20
20349;DHT22;10332;50.208;18.988;2023-08-01T10:22:10;23.40;45.80
20349;DHT22;10332;50.208;18.988;2023-08-01T10:24:39;23.20;42.90
20349;DHT22;10332;50.208;18.988;2023-08-01T10:27:14;23.20;44.90
20349;DHT22;10332;50.208;18.988;2023-08-01T10:30:00;23.20;43.60
20349;DHT22;10332;50.208;18.988;2023-08-01T10:32:37;23.10;41.30
20349;DHT22;10332;50.208;18.988;2023-08-01T10:35:08;23.00;41.60
20349;DHT22;10332;50.208;18.988;2023-08-01T10:37:40;22.90;43.40
20349;DHT22;10332;50.208;18.988;2023-08-01T10:40:08;22.80;48.60
20349;DHT22;10332;50.208;18.988;2023-08-01T10:42:42;22.60;56.80
20349;DHT22;10332;50.208;18.988;2023-08-01T10:45:37;22.50;62.00
20349;DHT22;10332;50.208;18.988;2023-08-01T10:48:11;22.00;87.60
20349;DHT22;10332;50.208;18.988;2023-08-01T10:50:39;21.60;87.50
20349;DHT22;10332;50.208;18.988;2023-08-01T10:53:09;21.20;93.30
20349;DHT22;10332;50.208;18.988;2023-08-01T10:55:42;20.90;97.70
20349;DHT22;10332;50.208;18.988;2023-08-01T10:58:12;20.60;99.90
20349;DHT22;10332;50.208;18.988;2023-08-01T11:00:41;20.30;99.90
20349;DHT22;10332;50.208;18.988;2023-08-01T11:03:11;20.10;99.90
20349;DHT22;10332;50.208;18.988;2023-08-01T11:05:39;19.90;99.90
20349;DHT22;10332;50.208;18.988;2023-08-01T11:08:06;19.90;99.90
20349;DHT22;10332;50.208;18.988;2023-08-01T11:10:34;19.80;99.90
20349;DHT22;10332;50.208;18.988;2023-08-01T11:13:02;19.70;99.90
20349;DHT22;10332;50.208;18.988;2023-08-01T11:15:30;19.70;99.90
20349;DHT22;10332;50.208;18.988;2023-08-01T11:17:57;19.70;99.90
20349;DHT22;10332;50.208;18.988;2023-08-01T11:20:25;19.70;99.90
20349;DHT22;10332;50.208;18.988;2023-08-01T11:22:58;19.60;99.90
20349;DHT22;10332;50.208;18.988;2023-08-01T11:28:11;19.70;99.90
20349;DHT22;10332;50.208;18.988;2023-08-01T11:30:41;19.70;99.90
20349;DHT22;10332;50.208;18.988;2023-08-01T11:35:53;19.80;99.90
20349;DHT22;10332;50.208;18.988;2023-08-01T11:38:25;19.90;99.90
20349;DHT22;10332;50.208;18.988;2023-08-01T11:40:57;20.00;99.90
20349;DHT22;10332;50.208;18.988;2023-08-01T11:43:25;20.00;99.90
20349;DHT22;10332;50.208;18.988;2023-08-01T11:45:55;20.00;99.90
20349;DHT22;10332;50.208;18.988;2023-08-01T11:48:26;20.00;99.90
20349;DHT22;10332;50.208;18.988;2023-08-01T11:51:01;20.00;99.90
20349;DHT22;10332;50.208;18.988;2023-08-01T11:53:29;20.00;99.90
20349;DHT22;10332;50.208;18.988;2023-08-01T11:55:59;20.10;99.90
20349;DHT22;10332;50.208;18.988;2023-08-01T11:58:41;20.10;99.90
20349;DHT22;10332;50.208;18.988;2023-08-01T12:01:11;20.10;99.90
20349;DHT22;10332;50.208;18.988;2023-08-01T12:03:57;20.10;99.90
20349;DHT22;10332;50.208;18.988;2023-08-01T12:06:25;20.20;99.90
20349;DHT22;10332;50.208;18.988;2023-08-01T12:09:12;20.10;99.90
20349;DHT22;10332;50.208;18.988;2023-08-01T12:11:41;20.20;99.90
20349;DHT22;10332;50.208;18.988;2023-08-01T12:14:12;20.20;99.90
20349;DHT22;10332;50.208;18.988;2023-08-01T12:16:44;20.20;99.90
20349;DHT22;10332;50.208;18.988;2023-08-01T12:19:20;20.20;99.90
20349;DHT22;10332;50.208;18.988;2023-08-01T12:21:48;20.10;99.90
20349;DHT22;10332;50.208;18.988;2023-08-01T12:24:16;20.10;99.90
20349;DHT22;10332;50.208;18.988;2023-08-01T12:26:43;20.10;99.90
20349;DHT22;10332;50.208;18.988;2023-08-01T12:29:11;20.00;99.90
20349;DHT22;10332;50.208;18.988;2023-08-01T12:31:39;20.00;99.90
20349;DHT22;10332;50.208;18.988;2023-08-01T12:34:07;19.90;99.90
20349;DHT22;10332;50.208;18.988;2023-08-01T12:36:34;19.80;99.90
20349;DHT22;10332;50.208;18.988;2023-08-01T12:39:02;19.90;99.90
20349;DHT22;10332;50.208;18.988;2023-08-01T12:41:30;19.90;99.90
20349;DHT22;10332;50.208;18.988;2023-08-01T12:43:57;19.80;99.90
20349;DHT22;10332;50.208;18.988;2023-08-01T12:46:25;19.80;99.90
20349;DHT22;10332;50.208;18.988;2023-08-01T12:48:53;19.90;99.90
20349;DHT22;10332;50.208;18.988;2023-08-01T12:51:21;19.80;99.90
20349;DHT22;10332;50.208;18.988;2023-08-01T12:53:48;19.90;99.90
20349;DHT22;10332;50.208;18.988;2023-08-01T12:56:16;19.90;99.90
20349;DHT22;10332;50.208;18.988;2023-08-01T12:58:43;19.90;99.90
20349;DHT22;10332;50.208;18.988;2023-08-01T13:01:10;19.80;99.90
20349;DHT22;10332;50.208;18.988;2023-08-01T13:03:38;19.80;99.90
20349;DHT22;10332;50.208;18.988;2023-08-01T13:06:06;19.80;99.90
20349;DHT22;10332;50.208;18.988;2023-08-01T13:08:33;19.90;99.90
20349;DHT22;10332;50.208;18.988;2023-08-01T13:11:01;19.90;99.90
20349;DHT22;10332;50.208;18.988;2023-08-01T13:13:30;19.80;99.90
20349;DHT22;10332;50.208;18.988;2023-08-01T13:15:57;19.80;99.90
20349;DHT22;10332;50.208;18.988;2023-08-01T13:18:25;19.70;99.90
20349;DHT22;10332;50.208;18.988;2023-08-01T13:20:52;19.70;99.90
20349;DHT22;10332;50.208;18.988;2023-08-01T13:23:20;19.60;99.90
20349;DHT22;10332;50.208;18.988;2023-08-01T13:25:49;19.70;99.90
20349;DHT22;10332;50.208;18.988;2023-08-01T13:28:16;19.70;99.90
20349;DHT22;10332;50.208;18.988;2023-08-01T13:30:44;19.60;99.90
20349;DHT22;10332;50.208;18.988;2023-08-01T13:33:12;19.60;99.90
20349;DHT22;10332;50.208;18.988;2023-08-01T13:35:39;19.60;99.90
20349;DHT22;10332;50.208;18.988;2023-08-01T13:38:07;19.60;99.90
20349;DHT22;10332;50.208;18.988;2023-08-01T13:40:34;19.60;99.90
20349;DHT22;10332;50.208;18.988;2023-08-01T13:43:02;19.60;99.90
20349;DHT22;10332;50.208;18.988;2023-08-01T13:45:30;19.60;99.90
20349;DHT22;10332;50.208;18.988;2023-08-01T13:47:59;19.60;99.90
20349;DHT22;10332;50.208;18.988;2023-08-01T13:50:28;19.50;99.90
20349;DHT22;10332;50.208;18.988;2023-08-01T13:52:57;19.50;99.90
20349;DHT22;10332;50.208;18.988;2023-08-01T13:55:24;19.40;99.90
20349;DHT22;10332;50.208;18.988;2023-08-01T13:57:52;19.40;99.90
20349;DHT22;10332;50.208;18.988;2023-08-01T14:00:19;19.40;99.90
20349;DHT22;10332;50.208;18.988;2023-08-01T14:02:49;19.40;99.90
20349;DHT22;10332;50.208;18.988;2023-08-01T14:05:18;19.40;99.90
20349;DHT22;10332;50.208;18.988;2023-08-01T14:07:46;19.40;99.90
20349;DHT22;10332;50.208;18.988;2023-08-01T14:10:13;19.40;99.90
20349;DHT22;10332;50.208;18.988;2023-08-01T14:12:42;19.50;99.90
20349;DHT22;10332;50.208;18.988;2023-08-01T14:15:10;19.60;99.90
20349;DHT22;10332;50.208;18.988;2023-08-01T14:17:38;19.60;99.90
20349;DHT22;10332;50.208;18.988;2023-08-01T14:20:07;19.70;99.90
20349;DHT22;10332;50.208;18.988;2023-08-01T14:22:35;19.70;99.90
20349;DHT22;10332;50.208;18.988;2023-08-01T14:25:03;19.60;99.90
20349;DHT22;10332;50.208;18.988;2023-08-01T14:27:31;19.60;99.90
20349;DHT22;10332;50.208;18.988;2023-08-01T14:29:59;19.50;99.90
20349;DHT22;10332;50.208;18.988;2023-08-01T14:32:27;19.40;99.90
20349;DHT22;10332;50.208;18.988;2023-08-01T14:34:55;19.40;99.90
20349;DHT22;10332;50.208;18.988;2023-08-01T14:37:23;19.30;99.90
20349;DHT22;10332;50.208;18.988;2023-08-01T14:39:52;19.30;99.90
20349;DHT22;10332;50.208;18.988;2023-08-01T14:42:20;19.30;99.90
20349;DHT22;10332;50.208;18.988;2023-08-01T14:44:52;19.20;99.90
20349;DHT22;10332;50.208;18.988;2023-08-01T14:47:20;19.20;99.90
20349;DHT22;10332;50.208;18.988;2023-08-01T14:49:49;19.20;99.90
20349;DHT22;10332;50.208;18.988;2023-08-01T14:52:16;19.10;99.90
20349;DHT22;10332;50.208;18.988;2023-08-01T14:54:51;19.00;99.90
20349;DHT22;10332;50.208;18.988;2023-08-01T14:57:19;19.00;99.90
20349;DHT22;10332;50.208;18.988;2023-08-01T14:59:47;18.90;99.90
20349;DHT22;10332;50.208;18.988;2023-08-01T15:02:15;18.90;99.90
20349;DHT22;10332;50.208;18.988;2023-08-01T15:04:43;18.80;99.90
20349;DHT22;10332;50.208;18.988;2023-08-01T15:07:10;18.80;99.90
20349;DHT22;10332;50.208;18.988;2023-08-01T15:09:42;18.80;99.90
20349;DHT22;10332;50.208;18.988;2023-08-01T15:12:11;18.80;99.90
20349;DHT22;10332;50.208;18.988;2023-08-01T15:14:38;18.80;99.90
20349;DHT22;10332;50.208;18.988;2023-08-01T15:17:06;18.70;99.90
20349;DHT22;10332;50.208;18.988;2023-08-01T15:19:37;18.70;99.90
20349;DHT22;10332;50.208;18.988;2023-08-01T15:22:07;18.70;99.90
20349;DHT22;10332;50.208;18.988;2023-08-01T15:24:34;18.70;99.90
20349;DHT22;10332;50.208;18.988;2023-08-01T15:27:02;18.70;99.90
20349;DHT22;10332;50.208;18.988;2023-08-01T15:29:29;18.70;99.90
20349;DHT22;10332;50.208;18.988;2023-08-01T15:31:57;18.70;99.90
20349;DHT22;10332;50.208;18.988;2023-08-01T15:34:24;18.70;99.90